Time;durP1;ratioP1;P1;durP2;ratioP2;P2;SDS_P1;SDS_P2;PMS_P1;PMS_P2;Temp;Humidity;BMP_temperature;BMP_pressure;BME280_temperature;BME280_humidity;BME280_pressure;Samples;Min_cycle;Max_cycle;Signal;HPM_P1;HPM_P2
2021/12/13 00:01:33;;;;;;;192.73;52.92;;;10.30;99.90;;;;;;4918540;29;20036;-91
2021/12/13 00:04:12;;;;;;;191.40;50.93;;;10.00;99.90;;;;;;4918979;29;20055;-91
2021/12/13 00:06:44;;;;;;;155.02;44.35;;;9.90;99.90;;;;;;4919619;29;20473;-91
2021/12/13 00:09:16;;;;;;;171.37;43.87;;;9.80;99.90;;;;;;4951606;29;20065;-89
2021/12/13 00:11:49;;;;;;;194.67;49.10;;;10.40;99.90;;;;;;4942515;29;20059;-91
2021/12/13 00:14:17;;;;;;;202.13;50.20;;;10.50;99.90;;;;;;4942612;29;20032;-91
2021/12/13 00:16:49;;;;;;;176.50;45.28;;;10.30;99.90;;;;;;4923384;29;20102;-91
2021/12/13 00:19:22;;;;;;;140.70;42.05;;;9.70;99.90;;;;;;4918116;29;20396;-90
2021/12/13 00:21:56;;;;;;;191.13;46.58;;;10.30;99.90;;;;;;4918176;29;20044;-90
2021/12/13 00:24:31;;;;;;;143.33;41.73;;;9.80;99.90;;;;;;4918322;29;20051;-89
2021/12/13 00:27:08;;;;;;;201.83;57.20;;;9.70;99.90;;;;;;4917905;29;20433;-90
2021/12/13 00:29:53;;;;;;;177.75;47.90;;;10.90;99.90;;;;;;4918155;29;20055;-91
2021/12/13 00:32:26;;;;;;;250.50;60.80;;;10.00;99.90;;;;;;4918135;29;20063;-91
2021/12/13 00:35:16;;;;;;;182.13;52.85;;;10.10;99.90;;;;;;4917507;29;20055;-90
2021/12/13 00:37:49;;;;;;;186.87;47.17;;;10.40;99.90;;;;;;4917850;29;20123;-91
2021/12/13 00:40:28;;;;;;;171.90;49.42;;;10.00;99.90;;;;;;4917614;29;20052;-91
2021/12/13 00:43:01;;;;;;;185.83;49.33;;;9.90;99.90;;;;;;4917826;29;20500;-91
2021/12/13 00:45:36;;;;;;;144.00;42.57;;;9.70;99.90;;;;;;4920427;29;20044;-91
2021/12/13 00:48:10;;;;;;;137.93;42.03;;;10.10;99.90;;;;;;4917510;29;20044;-91
2021/12/13 00:50:44;;;;;;;148.47;44.40;;;9.90;99.90;;;;;;4918612;29;20055;-91
2021/12/13 00:53:15;;;;;;;146.40;45.67;;;9.80;99.90;;;;;;4917698;29;20048;-91
2021/12/13 00:55:42;;;;;;;163.80;42.67;;;9.80;99.90;;;;;;4916888;29;20058;-91
2021/12/13 00:58:17;;;;;;;135.67;44.90;;;9.80;99.90;;;;;;4917234;29;20131;-90
2021/12/13 01:00:54;;;;;;;145.03;43.60;;;11.00;99.90;;;;;;4925003;29;20438;-92
2021/12/13 01:03:26;;;;;;;134.80;42.37;;;10.00;99.90;;;;;;4916854;29;20143;-90
2021/12/13 01:09:42;;;;;;;155.43;39.27;;;9.90;99.90;;;;;;4905386;29;20414;-91
2021/12/13 01:12:14;;;;;;;131.60;39.93;;;10.00;99.90;;;;;;4902678;29;20110;-90
2021/12/13 01:14:58;;;;;;;127.60;38.87;;;10.80;99.90;;;;;;4901596;29;20446;-88
2021/12/13 01:17:39;;;;;;;;;;;10.00;99.90;;;;;;4902867;29;20462;-91
2021/12/13 01:23:50;;;;;;;129.60;37.10;;;10.90;99.90;;;;;;4877242;29;20053;-91
2021/12/13 01:26:37;;;;;;;125.53;37.23;;;9.80;99.90;;;;;;4895109;29;20139;-90
2021/12/13 01:29:24;;;;;;;124.00;36.63;;;10.00;99.90;;;;;;4915641;29;20048;-91
2021/12/13 01:31:57;;;;;;;125.13;35.87;;;10.50;99.90;;;;;;4900072;29;20048;-91
2021/12/13 01:34:32;;;;;;;158.40;39.58;;;9.70;99.90;;;;;;4899908;29;20091;-91
2021/12/13 01:37:08;;;;;;;107.03;33.97;;;10.00;99.90;;;;;;4899700;29;20166;-91
2021/12/13 01:39:37;;;;;;;131.20;35.88;;;10.40;99.90;;;;;;4899628;29;20139;-91
2021/12/13 01:42:17;;;;;;;110.35;34.08;;;9.80;99.90;;;;;;4900198;29;20066;-92
2021/12/13 01:44:54;;;;;;;97.15;33.40;;;10.30;99.90;;;;;;4899754;29;20070;-91
2021/12/13 01:47:36;;;;;;;107.03;33.63;;;11.10;99.90;;;;;;4916244;29;20095;-91
2021/12/13 01:50:44;;;;;;;101.80;31.50;;;10.50;99.90;;;;;;4900052;29;20041;-92
2021/12/13 01:53:16;;;;;;;133.13;34.70;;;10.40;99.90;;;;;;4900366;29;20055;-91
2021/12/13 01:55:47;;;;;;;117.50;33.07;;;10.00;99.90;;;;;;4899675;29;20088;-92
2021/12/13 02:01:11;;;;;;;93.27;31.60;;;10.70;99.90;;;;;;4899965;29;20055;-92
2021/12/13 02:04:08;;;;;;;96.23;31.50;;;9.90;99.90;;;;;;4899533;29;20048;-93
2021/12/13 02:06:47;;;;;;;91.00;31.70;;;10.00;99.90;;;;;;4856590;29;1128539;-91
2021/12/13 02:09:18;;;;;;;83.03;28.60;;;9.50;99.90;;;;;;4917862;29;20055;-90
2021/12/13 02:11:50;;;;;;;72.33;27.83;;;10.10;99.90;;;;;;4915277;29;20123;-91
2021/12/13 02:14:27;;;;;;;79.50;29.73;;;9.00;99.90;;;;;;4915675;29;20048;-92
2021/12/13 02:17:10;;;;;;;69.50;28.67;;;10.70;99.90;;;;;;4916230;29;20576;-91
2021/12/13 02:19:38;;;;;;;70.18;27.67;;;10.00;99.90;;;;;;4917331;29;20044;-92
2021/12/13 02:22:25;;;;;;;64.68;27.08;;;10.00;99.90;;;;;;4918898;29;20119;-92
2021/12/13 02:24:54;;;;;;;63.13;26.60;;;10.00;99.90;;;;;;4915419;29;20143;-91
2021/12/13 02:27:26;;;;;;;62.90;26.37;;;10.90;99.90;;;;;;4916425;29;20464;-91
2021/12/13 02:29:55;;;;;;;59.70;26.90;;;9.70;99.90;;;;;;4915752;29;20041;-91
2021/12/13 02:32:41;;;;;;;69.80;27.48;;;10.50;99.90;;;;;;4915663;29;20112;-91
2021/12/13 02:35:10;;;;;;;56.08;25.80;;;10.20;99.90;;;;;;4916088;29;20140;-91
2021/12/13 02:37:36;;;;;;;55.60;25.38;;;9.80;99.90;;;;;;4915668;29;20103;-90
2021/12/13 02:40:03;;;;;;;68.50;26.75;;;9.40;99.90;;;;;;4915663;29;20134;-91
2021/12/13 02:42:30;;;;;;;66.25;27.25;;;10.00;99.90;;;;;;4916856;29;20191;-91
2021/12/13 02:45:09;;;;;;;56.70;26.70;;;9.80;99.90;;;;;;4915804;29;20043;-90
2021/12/13 02:47:38;;;;;;;61.97;26.13;;;10.40;99.90;;;;;;4916133;29;20059;-92
2021/12/13 02:50:21;;;;;;;68.55;27.92;;;10.00;99.90;;;;;;4915813;29;20056;-92
2021/12/13 02:52:47;;;;;;;68.40;27.73;;;9.90;99.90;;;;;;4920090;29;20060;-91
2021/12/13 02:55:20;;;;;;;54.75;26.77;;;9.90;99.90;;;;;;4925620;29;20064;-92
2021/12/13 02:57:50;;;;;;;66.18;27.38;;;10.70;99.90;;;;;;4935747;29;20091;-91
2021/12/13 03:00:27;;;;;;;66.53;28.07;;;10.50;99.90;;;;;;4933539;29;20050;-89
2021/12/13 03:02:57;;;;;;;59.43;27.63;;;9.90;99.90;;;;;;4934554;29;20062;-92
2021/12/13 03:05:31;;;;;;;60.15;28.23;;;10.10;99.90;;;;;;4941665;29;20040;-91
2021/12/13 03:08:04;;;;;;;52.77;27.03;;;9.40;99.90;;;;;;4935960;29;20513;-90
2021/12/13 03:10:35;;;;;;;58.30;27.20;;;10.00;99.90;;;;;;4949809;29;20028;-90
2021/12/13 03:13:01;;;;;;;49.65;25.98;;;10.30;99.90;;;;;;4959134;29;20364;-90
2021/12/13 03:15:32;;;;;;;64.87;28.50;;;9.30;99.90;;;;;;4960458;29;20027;-92
2021/12/13 03:18:18;;;;;;;56.17;27.17;;;9.70;99.90;;;;;;4953479;29;20047;-92
2021/12/13 03:21:10;;;;;;;51.23;24.83;;;9.70;99.90;;;;;;4938649;29;20054;-91
2021/12/13 03:24:16;;;;;;;45.70;23.97;;;9.30;99.90;;;;;;4939260;29;20059;-90
2021/12/13 03:27:16;;;;;;;45.30;24.10;;;9.80;99.90;;;;;;4954385;29;20055;-91
2021/12/13 03:29:58;;;;;;;39.95;23.38;;;9.90;99.90;;;;;;4937936;29;20051;-91
2021/12/13 03:32:33;;;;;;;43.17;23.13;;;9.80;99.90;;;;;;4938081;29;20040;-91
2021/12/13 03:35:40;;;;;;;38.00;21.50;;;10.20;99.90;;;;;;4937764;29;20123;-91
2021/12/13 03:38:11;;;;;;;34.87;20.23;;;9.80;99.90;;;;;;4896157;29;20062;-91
2021/12/13 03:40:37;;;;;;;35.50;20.37;;;10.50;99.90;;;;;;4938413;29;20048;-90
2021/12/13 03:43:17;;;;;;;36.97;21.50;;;10.40;99.90;;;;;;4937990;29;20484;-92
2021/12/13 03:45:49;;;;;;;34.30;18.50;;;9.80;99.90;;;;;;4938006;29;20559;-91
2021/12/13 03:48:18;;;;;;;29.40;16.97;;;10.20;99.90;;;;;;4937775;29;20051;-89
2021/12/13 03:50:48;;;;;;;28.30;17.20;;;9.80;99.90;;;;;;4936759;29;20051;-91
2021/12/13 03:53:17;;;;;;;28.17;16.67;;;9.50;99.90;;;;;;4937721;29;20036;-90
2021/12/13 03:55:46;;;;;;;29.17;16.43;;;10.40;99.90;;;;;;4937447;29;20044;-90
2021/12/13 03:58:18;;;;;;;29.77;15.83;;;10.50;99.90;;;;;;4937098;29;20473;-91
2021/12/13 04:01:12;;;;;;;32.90;16.73;;;10.10;99.90;;;;;;4937497;29;20091;-90
2021/12/13 04:03:40;;;;;;;30.07;15.23;;;9.60;99.90;;;;;;4930533;29;20055;-92
2021/12/13 04:06:06;;;;;;;37.30;15.30;;;9.60;99.90;;;;;;4936702;29;20044;-91
2021/12/13 04:08:33;;;;;;;23.60;13.73;;;9.30;99.90;;;;;;4921310;29;20059;-91
2021/12/13 04:11:04;;;;;;;26.63;14.73;;;10.00;99.90;;;;;;4920868;29;20071;-90
2021/12/13 04:13:36;;;;;;;27.53;15.23;;;9.70;99.90;;;;;;4921729;29;20055;-91
2021/12/13 04:16:17;;;;;;;27.77;14.70;;;9.70;99.90;;;;;;4920973;29;20511;-89
2021/12/13 04:21:41;;;;;;;28.77;13.50;;;9.60;99.90;;;;;;4921153;29;20134;-91
2021/12/13 04:24:11;;;;;;;28.23;13.53;;;9.30;99.90;;;;;;4921624;29;20134;-90
2021/12/13 04:26:41;;;;;;;24.30;12.67;;;9.10;99.90;;;;;;4920056;29;20429;-90
2021/12/13 04:29:16;;;;;;;26.00;13.00;;;9.70;99.90;;;;;;4920734;29;20055;-91
2021/12/13 04:31:42;;;;;;;26.20;14.07;;;9.10;99.90;;;;;;4921974;29;20040;-91
2021/12/13 04:34:08;;;;;;;45.00;30.13;;;9.50;99.90;;;;;;4920634;29;20051;-91
2021/12/13 04:36:41;;;;;;;26.95;13.27;;;9.40;99.90;;;;;;4921323;29;20564;-90
2021/12/13 04:39:17;;;;;;;36.95;21.98;;;9.60;99.90;;;;;;4920806;29;20075;-89
2021/12/13 04:41:53;;;;;;;26.93;13.13;;;9.00;99.90;;;;;;4920464;29;20107;-90
2021/12/13 04:44:44;;;;;;;23.93;12.23;;;9.20;99.90;;;;;;4921539;29;20047;-90
2021/12/13 04:47:21;;;;;;;22.30;11.83;;;9.10;99.90;;;;;;4921389;29;20059;-89
2021/12/13 04:49:59;;;;;;;20.37;11.60;;;9.00;99.90;;;;;;4925089;29;20149;-91
2021/12/13 04:52:25;;;;;;;24.47;13.03;;;9.50;99.90;;;;;;4926557;29;20051;-89
2021/12/13 04:54:56;;;;;;;22.27;11.33;;;9.10;99.90;;;;;;4920110;29;20047;-91
2021/12/13 04:57:23;;;;;;;28.60;12.90;;;9.30;99.90;;;;;;4921180;29;20051;-91
2021/12/13 04:59:56;;;;;;;23.83;12.30;;;8.30;99.90;;;;;;4926843;29;20075;-91
2021/12/13 05:02:23;;;;;;;23.48;11.68;;;8.70;99.90;;;;;;4921799;29;20051;-90
2021/12/13 05:04:58;;;;;;;22.70;12.07;;;8.60;99.90;;;;;;4920440;29;20130;-90
2021/12/13 05:07:25;;;;;;;22.60;11.87;;;9.60;99.90;;;;;;4929038;29;20064;-91
2021/12/13 05:09:52;;;;;;;22.17;11.53;;;8.70;99.90;;;;;;4935859;29;20048;-90
2021/12/13 05:12:25;;;;;;;22.63;10.83;;;9.30;99.90;;;;;;4936355;29;20122;-90
2021/12/13 05:15:12;;;;;;;23.15;10.95;;;8.80;99.90;;;;;;4935652;29;20048;-91
2021/12/13 05:17:43;;;;;;;21.97;10.90;;;7.80;99.90;;;;;;4936537;29;20146;-90
2021/12/13 05:20:20;;;;;;;19.97;10.47;;;7.90;99.90;;;;;;4936526;29;20066;-90
2021/12/13 05:22:56;;;;;;;23.30;11.50;;;8.50;99.90;;;;;;4935870;29;20035;-91
2021/12/13 05:25:38;;;;;;;23.80;11.03;;;8.50;99.90;;;;;;4939168;29;20043;-91
2021/12/13 05:28:13;;;;;;;22.77;12.13;;;8.80;99.90;;;;;;4935978;29;20043;-90
2021/12/13 05:30:57;;;;;;;26.83;12.57;;;9.60;99.90;;;;;;4935980;29;20404;-91
2021/12/13 05:33:26;;;;;;;27.83;14.05;;;9.60;99.90;;;;;;4936301;29;20046;-90
2021/12/13 05:35:55;;;;;;;27.10;13.33;;;9.70;99.90;;;;;;4935526;29;20492;-90
2021/12/13 05:38:29;;;;;;;30.20;14.40;;;8.30;99.90;;;;;;4934917;29;20063;-90
2021/12/13 05:40:57;;;;;;;29.07;13.73;;;9.90;99.90;;;;;;4935726;29;20462;-91
2021/12/13 05:43:27;;;;;;;32.53;16.07;;;8.70;99.90;;;;;;4935684;29;20047;-91
2021/12/13 05:46:08;;;;;;;28.10;14.50;;;8.70;99.90;;;;;;4935917;29;20043;-91
2021/12/13 05:48:49;;;;;;;33.93;16.40;;;8.60;99.90;;;;;;4936245;29;20050;-91
2021/12/13 05:51:25;;;;;;;33.43;15.80;;;8.80;99.90;;;;;;4936028;29;20049;-91
2021/12/13 05:53:59;;;;;;;37.13;17.67;;;8.80;99.90;;;;;;4938269;29;20047;-91
2021/12/13 05:56:42;;;;;;;33.83;15.70;;;8.70;99.90;;;;;;4937299;29;20130;-92
2021/12/13 05:59:12;;;;;;;35.70;16.50;;;8.80;99.90;;;;;;4936028;29;20183;-91
2021/12/13 06:01:58;;;;;;;34.08;16.92;;;7.80;99.90;;;;;;4935686;29;20058;-91
2021/12/13 06:04:54;;;;;;;34.90;17.17;;;8.90;99.90;;;;;;4935822;29;20412;-91
2021/12/13 06:07:23;;;;;;;34.63;17.27;;;8.80;99.90;;;;;;4935133;29;20158;-91
2021/12/13 06:10:04;;;;;;;35.40;18.00;;;9.80;99.90;;;;;;4935204;29;20055;-91
2021/12/13 06:12:37;;;;;;;34.60;17.90;;;8.80;99.90;;;;;;4936489;29;20043;-90
2021/12/13 06:15:14;;;;;;;34.78;18.23;;;8.80;99.90;;;;;;4959250;29;20055;-90
2021/12/13 06:17:48;;;;;;;33.70;18.47;;;8.80;99.90;;;;;;4959349;29;20036;-91
2021/12/13 06:20:22;;;;;;;37.60;20.00;;;8.80;99.90;;;;;;4959200;29;20035;-91
2021/12/13 06:22:48;;;;;;;41.00;20.20;;;8.80;99.90;;;;;;4939136;29;20051;-91
2021/12/13 06:25:29;;;;;;;36.67;20.03;;;8.40;99.90;;;;;;4935751;29;20047;-92
2021/12/13 06:27:59;;;;;;;36.30;20.27;;;9.90;99.90;;;;;;4936451;29;20078;-91
2021/12/13 06:30:40;;;;;;;38.57;20.03;;;8.80;99.90;;;;;;4938386;29;20066;-91
2021/12/13 06:33:09;;;;;;;41.53;22.13;;;8.80;99.90;;;;;;4935335;29;20039;-91
2021/12/13 06:35:37;;;;;;;44.97;21.63;;;9.50;99.90;;;;;;4935870;29;20043;-92
2021/12/13 06:38:25;;;;;;;42.77;21.67;;;9.40;99.90;;;;;;4934635;29;20055;-92
2021/12/13 06:41:03;;;;;;;47.13;23.27;;;8.80;99.90;;;;;;4934496;29;20044;-91
2021/12/13 06:43:33;;;;;;;44.97;23.03;;;8.80;99.90;;;;;;4935954;29;20048;-90
2021/12/13 06:46:03;;;;;;;48.77;23.80;;;8.70;99.90;;;;;;4948595;29;20052;-92
2021/12/13 06:48:44;;;;;;;42.10;23.20;;;8.70;99.90;;;;;;4940039;29;20092;-92
2021/12/13 06:51:14;;;;;;;43.23;23.73;;;9.40;99.90;;;;;;4938549;29;20043;-92
2021/12/13 06:53:40;;;;;;;43.60;23.63;;;9.50;99.90;;;;;;4939257;29;20103;-91
2021/12/13 06:56:24;;;;;;;47.63;24.57;;;9.30;99.90;;;;;;4944980;29;20134;-92
2021/12/13 06:58:53;;;;;;;42.58;23.20;;;8.80;99.90;;;;;;4940416;29;20048;-92
2021/12/13 07:01:19;;;;;;;48.57;25.10;;;8.40;99.90;;;;;;4938660;29;20599;-91
2021/12/13 07:04:03;;;;;;;42.27;23.10;;;9.30;99.90;;;;;;4938434;29;20040;-92
2021/12/13 07:06:29;;;;;;;39.97;22.88;;;8.90;99.90;;;;;;4939138;29;20062;-91
2021/12/13 07:09:08;;;;;;;47.63;24.87;;;8.20;99.90;;;;;;4937723;29;20051;-91
2021/12/13 07:11:53;;;;;;;48.03;24.97;;;8.80;99.90;;;;;;4938944;29;20036;-91
2021/12/13 07:14:30;;;;;;;45.47;24.53;;;8.50;99.90;;;;;;4938267;29;20055;-92
2021/12/13 07:16:56;;;;;;;42.67;23.30;;;9.20;99.90;;;;;;4938015;29;20400;-91
2021/12/13 07:19:32;;;;;;;42.70;24.03;;;9.70;99.90;;;;;;4938335;29;20130;-91
2021/12/13 07:22:02;;;;;;;45.53;24.93;;;8.40;99.90;;;;;;4937014;29;20125;-85
2021/12/13 07:24:47;;;;;;;45.33;24.50;;;9.20;99.90;;;;;;4937937;29;20098;-86
2021/12/13 07:27:31;;;;;;;48.37;25.93;;;9.50;99.90;;;;;;4936881;29;20090;-83
2021/12/13 07:30:11;;;;;;;44.03;25.30;;;8.80;99.90;;;;;;4936199;29;20043;-84
2021/12/13 07:32:42;;;;;;;51.97;26.97;;;8.80;99.90;;;;;;4937083;29;20051;-84
2021/12/13 07:35:14;;;;;;;45.27;26.00;;;8.80;99.90;;;;;;4936425;29;20054;-84
2021/12/13 07:37:56;;;;;;;44.10;25.13;;;8.80;99.90;;;;;;4936592;29;20044;-84
2021/12/13 07:40:42;;;;;;;45.47;25.10;;;8.80;99.90;;;;;;4936897;29;20058;-85
2021/12/13 07:43:45;;;;;;;48.53;25.30;;;8.70;99.90;;;;;;4935927;29;20127;-87
2021/12/13 07:46:25;;;;;;;46.90;25.57;;;8.80;99.90;;;;;;4938008;29;20127;-86
2021/12/13 07:48:55;;;;;;;51.70;26.73;;;8.80;99.90;;;;;;4935891;29;20048;-84
2021/12/13 07:51:41;;;;;;;44.97;26.00;;;8.80;99.90;;;;;;4936524;29;20098;-83
2021/12/13 07:54:13;;;;;;;46.90;25.63;;;8.70;99.90;;;;;;4935893;29;20048;-84
2021/12/13 07:56:56;;;;;;;51.37;27.17;;;8.70;99.90;;;;;;4937138;29;20043;-84
2021/12/13 07:59:30;;;;;;;53.73;27.10;;;8.70;99.90;;;;;;4936456;29;20051;-84
2021/12/13 08:02:04;;;;;;;48.33;26.23;;;8.70;99.90;;;;;;4935332;29;20071;-84
2021/12/13 08:04:45;;;;;;;48.33;25.97;;;8.70;99.90;;;;;;4935530;29;20043;-85
2021/12/13 08:07:18;;;;;;;53.07;27.10;;;8.70;99.90;;;;;;4935956;29;20412;-84
2021/12/13 08:09:57;;;;;;;56.33;27.47;;;8.70;99.90;;;;;;4935821;29;20075;-84
2021/12/13 08:12:40;;;;;;;51.60;27.20;;;8.70;99.90;;;;;;4935650;29;20488;-84
2021/12/13 08:15:17;;;;;;;48.43;27.17;;;8.60;99.90;;;;;;4936206;29;20108;-84
2021/12/13 08:17:59;;;;;;;53.23;27.93;;;8.70;99.90;;;;;;4935275;29;20506;-84
2021/12/13 08:20:35;;;;;;;54.30;27.47;;;8.70;99.90;;;;;;4936076;29;20047;-83
2021/12/13 08:23:02;;;;;;;52.70;26.50;;;8.70;99.90;;;;;;4935534;29;20048;-84
2021/12/13 08:25:35;;;;;;;55.30;29.17;;;8.70;99.90;;;;;;4935150;29;20130;-83
2021/12/13 08:28:06;;;;;;;58.47;32.72;;;8.60;99.90;;;;;;4935527;29;20051;-83
2021/12/13 08:30:49;;;;;;;49.03;27.83;;;8.70;99.90;;;;;;4936082;29;20520;-84
2021/12/13 08:33:16;;;;;;;52.93;26.70;;;8.70;99.90;;;;;;4935001;29;20052;-84
2021/12/13 08:35:46;;;;;;;46.63;26.93;;;8.70;99.90;;;;;;4935321;29;20050;-83
2021/12/13 08:38:25;;;;;;;48.70;26.63;;;8.70;99.90;;;;;;4935017;29;20110;-84
2021/12/13 08:40:51;;;;;;;51.20;27.87;;;8.70;99.90;;;;;;4936586;29;20461;-84
2021/12/13 08:43:40;;;;;;;46.47;25.80;;;8.70;99.90;;;;;;4936905;29;20079;-83
2021/12/13 08:46:06;;;;;;;53.97;26.73;;;8.70;99.90;;;;;;4934819;29;20058;-86
2021/12/13 08:48:47;;;;;;;49.80;27.23;;;8.70;99.90;;;;;;4935612;29;20071;-85
2021/12/13 08:51:20;;;;;;;44.87;25.87;;;8.70;99.90;;;;;;4939828;29;20138;-86
2021/12/13 08:54:00;;;;;;;45.23;26.20;;;8.70;99.90;;;;;;4935072;29;20497;-85
2021/12/13 08:56:27;;;;;;;50.03;26.63;;;8.70;99.90;;;;;;4935422;29;20040;-85
2021/12/13 08:58:59;;;;;;;44.87;26.30;;;8.70;99.90;;;;;;4936452;29;20047;-86
2021/12/13 09:01:28;;;;;;;47.83;26.57;;;8.70;99.90;;;;;;4934748;29;20083;-84
2021/12/13 09:03:54;;;;;;;47.40;25.63;;;8.70;99.90;;;;;;4935927;29;20138;-83
2021/12/13 09:06:32;;;;;;;43.07;25.07;;;8.70;99.90;;;;;;4935629;29;20059;-83
2021/12/13 09:09:17;;;;;;;49.67;26.10;;;8.70;99.90;;;;;;4918744;29;20138;-84
2021/12/13 09:12:03;;;;;;;42.17;24.60;;;8.70;99.90;;;;;;4919365;29;20062;-84
2021/12/13 09:14:39;;;;;;;47.80;26.20;;;8.70;99.90;;;;;;4918554;29;20044;-84
2021/12/13 09:17:31;;;;;;;42.70;24.63;;;8.70;99.90;;;;;;4945624;28;20020;-83
2021/12/13 09:20:06;;;;;;;47.07;26.17;;;8.70;99.90;;;;;;4959240;28;20083;-84
2021/12/13 09:22:49;;;;;;;42.17;24.50;;;8.70;99.90;;;;;;4922861;29;20051;-84
2021/12/13 09:25:26;;;;;;;40.53;24.40;;;8.70;99.90;;;;;;4919761;29;20048;-84
2021/12/13 09:28:03;;;;;;;40.73;23.23;;;8.70;99.90;;;;;;4917885;29;20056;-84
2021/12/13 09:30:35;;;;;;;41.20;24.27;;;8.70;99.90;;;;;;4933780;29;20551;-84
2021/12/13 09:33:15;;;;;;;43.53;23.97;;;8.80;99.90;;;;;;4935513;29;20553;-85
2021/12/13 09:36:08;;;;;;;46.43;24.77;;;8.80;99.90;;;;;;4918547;29;20107;-85
2021/12/13 09:38:58;;;;;;;44.57;24.73;;;8.80;99.90;;;;;;4920531;29;20519;-85
2021/12/13 09:41:59;;;;;;;41.77;24.00;;;8.80;99.90;;;;;;4919267;29;20048;-85
2021/12/13 09:44:34;;;;;;;42.00;23.80;;;8.80;99.90;;;;;;4933726;29;20055;-85
2021/12/13 09:47:10;;;;;;;36.43;22.00;;;8.80;99.90;;;;;;4923734;29;20103;-86
2021/12/13 09:49:58;;;;;;;37.27;22.10;;;8.80;99.90;;;;;;4925330;29;20058;-86
2021/12/13 09:52:34;;;;;;;36.17;22.47;;;9.00;99.90;;;;;;4921484;29;20050;-91
2021/12/13 09:55:28;;;;;;;43.23;24.53;;;9.90;99.90;;;;;;4919030;29;20070;-86
2021/12/13 09:58:11;;;;;;;36.70;23.00;;;8.80;99.90;;;;;;4918615;29;20126;-86
2021/12/13 10:00:51;;;;;;;38.17;22.23;;;9.20;99.90;;;;;;4935767;29;20118;-87
2021/12/13 10:03:25;;;;;;;36.07;21.87;;;8.90;99.90;;;;;;4917866;29;20075;-86
2021/12/13 10:09:36;;;;;;;36.38;21.75;;;9.50;99.90;;;;;;4917332;29;20504;-85
2021/12/13 10:12:57;;;;;;;31.27;19.70;;;8.10;99.90;;;;;;4917570;29;20052;-85
2021/12/13 10:15:28;;;;;;;30.90;19.87;;;8.90;99.90;;;;;;4906076;29;20055;-85
2021/12/13 10:18:08;;;;;;;34.97;19.77;;;8.80;99.90;;;;;;4916923;29;20052;-84
2021/12/13 10:20:55;;;;;;;31.93;19.40;;;9.50;99.90;;;;;;4917640;29;20051;-84
2021/12/13 10:23:32;;;;;;;39.17;20.23;;;8.80;99.90;;;;;;4918369;29;20489;-84
2021/12/13 10:26:01;;;;;;;28.43;17.93;;;9.00;99.90;;;;;;4921116;29;20035;-84
2021/12/13 10:28:39;;;;;;;32.77;18.67;;;8.80;99.90;;;;;;4922105;29;20047;-85
2021/12/13 10:31:21;;;;;;;30.00;18.97;;;8.90;99.90;;;;;;4921209;29;20083;-84
2021/12/13 10:33:47;;;;;;;34.37;20.33;;;8.90;99.90;;;;;;4921757;29;20134;-85
2021/12/13 10:36:14;;;;;;;33.43;22.23;;;8.40;99.90;;;;;;4923786;29;20066;-84
2021/12/13 10:38:53;;;;;;;36.00;20.77;;;9.00;99.90;;;;;;4924914;29;20059;-83
2021/12/13 10:41:30;;;;;;;30.20;18.50;;;8.80;99.90;;;;;;4922200;29;20079;-84
2021/12/13 10:44:05;;;;;;;26.23;16.63;;;9.00;99.90;;;;;;4921535;29;20048;-83
2021/12/13 10:46:42;;;;;;;28.33;16.70;;;9.60;99.90;;;;;;4924392;29;20050;-84
2021/12/13 10:49:17;;;;;;;31.87;21.70;;;9.60;99.90;;;;;;4921759;29;20059;-83
2021/12/13 10:51:54;;;;;;;31.37;20.97;;;9.70;99.90;;;;;;4921577;29;20087;-83
2021/12/13 10:54:28;;;;;;;29.87;17.10;;;9.00;99.90;;;;;;4921280;29;20047;-84
2021/12/13 10:56:59;;;;;;;38.67;26.13;;;9.10;99.90;;;;;;4921421;29;20042;-83
2021/12/13 10:59:31;;;;;;;38.00;28.23;;;9.10;99.90;;;;;;4920948;29;20050;-86
2021/12/13 11:02:07;;;;;;;31.67;18.37;;;9.60;99.90;;;;;;4922105;29;20107;-85
2021/12/13 11:04:40;;;;;;;28.33;17.17;;;9.20;99.90;;;;;;4922412;29;20044;-86
2021/12/13 11:07:09;;;;;;;30.42;19.52;;;9.10;99.90;;;;;;4938349;29;20055;-86
2021/12/13 11:09:37;;;;;;;29.73;17.07;;;9.10;99.90;;;;;;4939203;29;20445;-85
2021/12/13 11:12:21;;;;;;;30.20;22.80;;;9.20;99.90;;;;;;4920870;29;20040;-83
2021/12/13 11:14:49;;;;;;;;;;;9.20;99.90;;;;;;4903284;29;20052;-84
2021/12/13 11:17:19;;;;;;;27.40;16.60;;;9.10;99.90;;;;;;4902857;29;20375;-85
2021/12/13 11:19:52;;;;;;;28.37;17.00;;;9.20;99.90;;;;;;4901813;29;20063;-83
2021/12/13 11:22:25;;;;;;;27.38;17.20;;;9.20;99.90;;;;;;4901753;29;20457;-82
2021/12/13 11:24:54;;;;;;;26.03;16.93;;;9.10;99.90;;;;;;4932619;29;20062;-83
2021/12/13 11:27:31;;;;;;;30.60;19.50;;;9.20;99.90;;;;;;4936474;29;20069;-83
2021/12/13 11:29:58;;;;;;;28.07;17.10;;;9.20;99.90;;;;;;4936957;29;20050;-83
2021/12/13 11:32:38;;;;;;;26.70;16.67;;;9.20;99.90;;;;;;4938234;29;20048;-83
2021/12/13 11:35:07;;;;;;;29.30;17.30;;;9.20;99.90;;;;;;4935683;29;20142;-83
2021/12/13 11:38:00;;;;;;;28.60;17.80;;;9.20;99.90;;;;;;4935900;29;20058;-83
2021/12/13 11:40:52;;;;;;;27.30;17.10;;;9.20;99.90;;;;;;4936544;29;20493;-82
2021/12/13 11:43:44;;;;;;;28.67;17.50;;;9.10;99.90;;;;;;4936280;29;20055;-83
2021/12/13 11:46:24;;;;;;;31.57;18.70;;;9.10;99.90;;;;;;4903121;29;20189;-83
2021/12/13 11:49:41;;;;;;;28.60;18.93;;;9.10;99.90;;;;;;4937038;29;20106;-83
2021/12/13 11:52:29;;;;;;;29.13;18.13;;;9.10;99.90;;;;;;4936531;29;20070;-82
2021/12/13 11:55:26;;;;;;;29.70;19.17;;;9.20;99.90;;;;;;4921421;29;20043;-83
2021/12/13 11:58:29;;;;;;;33.63;22.90;;;9.20;99.90;;;;;;4924305;29;20473;-83
2021/12/13 12:01:26;;;;;;;26.77;17.50;;;9.20;99.90;;;;;;4936003;29;20484;-83
2021/12/13 12:04:29;;;;;;;31.10;20.60;;;9.20;99.90;;;;;;4935506;29;20058;-83
2021/12/13 12:07:13;;;;;;;28.93;17.87;;;9.20;99.90;;;;;;4945559;29;20055;-82
2021/12/13 12:10:05;;;;;;;36.72;23.70;;;9.20;99.90;;;;;;4956145;29;20089;-83
2021/12/13 12:12:55;;;;;;;33.73;20.63;;;9.20;99.90;;;;;;4939743;29;20059;-82
2021/12/13 12:15:24;;;;;;;29.23;20.10;;;9.20;99.90;;;;;;4939253;29;20513;-83
2021/12/13 12:17:51;;;;;;;28.90;18.73;;;9.20;99.90;;;;;;4938293;29;20439;-85
2021/12/13 12:20:28;;;;;;;31.27;19.10;;;9.30;99.90;;;;;;4940240;29;20492;-84
2021/12/13 12:23:04;;;;;;;26.20;17.37;;;9.30;99.90;;;;;;4975428;28;20043;-84
2021/12/13 12:25:32;;;;;;;29.27;19.90;;;9.20;99.90;;;;;;4958150;28;20062;-83
2021/12/13 12:28:02;;;;;;;30.07;17.93;;;9.20;99.90;;;;;;4942062;29;20078;-83
2021/12/13 12:30:36;;;;;;;25.73;16.33;;;9.20;99.90;;;;;;4957077;29;20055;-85
2021/12/13 12:33:07;;;;;;;29.63;17.17;;;9.20;99.90;;;;;;4942340;29;20110;-84
2021/12/13 12:35:43;;;;;;;25.93;16.00;;;9.30;99.90;;;;;;4956267;29;20046;-85
2021/12/13 12:38:37;;;;;;;27.27;16.70;;;9.30;99.90;;;;;;4940586;29;20058;-86
2021/12/13 12:41:06;;;;;;;26.98;17.15;;;9.20;99.90;;;;;;4939354;29;20070;-88
2021/12/13 12:43:37;;;;;;;28.07;17.37;;;9.20;99.90;;;;;;4942882;29;20051;-86
2021/12/13 12:46:13;;;;;;;26.10;16.97;;;9.20;99.90;;;;;;4940141;29;20051;-84
2021/12/13 12:48:54;;;;;;;26.93;16.90;;;9.30;99.90;;;;;;4938410;29;20059;-85
2021/12/13 12:51:24;;;;;;;25.10;17.07;;;9.20;99.90;;;;;;4938351;29;20082;-84
2021/12/13 12:54:00;;;;;;;26.13;16.30;;;9.20;99.90;;;;;;4919452;29;20086;-83
2021/12/13 12:56:41;;;;;;;27.03;15.03;;;9.20;99.90;;;;;;4931785;29;20086;-83
2021/12/13 12:59:17;;;;;;;25.43;15.80;;;9.20;99.90;;;;;;4955139;29;20135;-83
2021/12/13 13:01:48;;;;;;;24.10;16.00;;;9.20;99.90;;;;;;4938457;29;20051;-83
2021/12/13 13:04:21;;;;;;;24.27;15.50;;;9.20;99.90;;;;;;4938500;29;20399;-83
2021/12/13 13:06:50;;;;;;;28.67;17.23;;;9.20;99.90;;;;;;4954378;29;20504;-84
2021/12/13 13:09:15;;;;;;;26.80;16.47;;;9.30;99.90;;;;;;4938309;29;20142;-83
2021/12/13 13:11:45;;;;;;;25.43;16.60;;;9.30;99.90;;;;;;4938355;29;20130;-83
2021/12/13 13:14:22;;;;;;;24.10;15.27;;;9.20;99.90;;;;;;4937640;29;20134;-83
2021/12/13 13:16:56;;;;;;;24.87;16.77;;;9.30;99.90;;;;;;4937816;29;20047;-84
2021/12/13 13:19:33;;;;;;;25.27;16.60;;;9.30;99.90;;;;;;4938222;29;20047;-84
2021/12/13 13:22:05;;;;;;;26.60;15.77;;;9.20;99.90;;;;;;4938011;29;20057;-85
2021/12/13 13:24:36;;;;;;;25.52;15.88;;;9.30;99.90;;;;;;4938202;29;20106;-83
2021/12/13 13:27:02;;;;;;;26.57;15.53;;;9.20;99.90;;;;;;4954304;29;20138;-83
2021/12/13 13:29:28;;;;;;;22.80;14.93;;;9.20;99.90;;;;;;4941284;29;20134;-84
2021/12/13 13:31:59;;;;;;;24.13;15.80;;;9.20;99.90;;;;;;4918894;29;20393;-85
2021/12/13 13:34:31;;;;;;;25.97;16.13;;;9.20;99.90;;;;;;4918266;29;20043;-84
2021/12/13 13:37:21;;;;;;;25.23;15.83;;;9.20;99.90;;;;;;4919321;29;20400;-84